»·PEaware :: SWA2806 KLAS-KOAK

SWA2806 :: KLAS-KOAK

FLIGHT INFORMATION

Flight Status: Arrived
Operator:
Southwest Airlines
More flights by this operator :: More flights under this callsign
Pilot: Kirk M. (10269)
Aircraft: BOEING 737-800
(B738)
More flights by this aircraft type
Origin: KLAS McCarran Intl
United States
Destination: KOAK Metro Oakland Intl
United States
More flights between these airports :: More routes between these airports
Route: SHEAD1 KENNO RUSME OAKES2
File this flight plan on PilotEdge
Remarks: PBN / A1B1C1D1S1S2 DOF / 180608 REG / N806SB EET / KZOA0024 OPR / SWA PER / C RMK / TCAS SIMBRIEF
Altitude:
(Current/Filed)
36,000ft
Speed:
(Current/Filed)
446kts
Departed: 07-Jun-18 07:13 PM
Arrived: 07-Jun-18 08:24 PM
Distance/Time
Traveled:
353nm/1:11
Distance/Time
To Go:
Arrived

Flight Plot

Page will automatically refresh every two minutes.

Flight plan parsing failed; only flown route is shown


Map Options




Map Legend


Flown Route
Filed Route
Departure Airport
Arrival Airport
Navaid (VOR, NDB)
Fix

Horizontal Profiles

Position Reports

Time Latitude Longitude Heading Altitude Ground
Speed
07-Jun-18 18:42 36.081131 -115.147940 0 2119ft 0kts
07-Jun-18 18:43 36.081131 -115.147940 62 2119ft 0kts
07-Jun-18 18:44 36.081131 -115.147940 62 2119ft 0kts
07-Jun-18 18:45 36.081131 -115.147940 62 2119ft 0kts
07-Jun-18 18:46 36.081131 -115.147940 62 2119ft 0kts
07-Jun-18 18:47 36.081131 -115.147940 62 2119ft 0kts
07-Jun-18 18:48 36.081131 -115.147940 62 2119ft 0kts
07-Jun-18 18:49 36.081131 -115.147940 62 2119ft 0kts
07-Jun-18 18:50 36.081131 -115.147940 62 2119ft 0kts
07-Jun-18 18:51 36.081131 -115.147940 62 2119ft 0kts
07-Jun-18 18:52 36.081131 -115.147940 62 2119ft 0kts
07-Jun-18 18:53 36.081131 -115.147940 62 2119ft 0kts
07-Jun-18 18:54 36.081131 -115.147940 62 2119ft 0kts
07-Jun-18 18:55 36.081131 -115.147941 62 2119ft 0kts
07-Jun-18 18:56 36.081101 -115.148362 109 2119ft 2kts
07-Jun-18 18:57 36.081118 -115.148549 155 2119ft 5kts
07-Jun-18 18:58 36.080868 -115.148406 154 2119ft 0kts
07-Jun-18 18:59 36.080868 -115.148406 154 2119ft 0kts
07-Jun-18 19:00 36.080868 -115.148406 154 2119ft 0kts
07-Jun-18 19:01 36.080868 -115.148406 154 2119ft 0kts
07-Jun-18 19:02 36.080852 -115.148398 155 2119ft 1kts
07-Jun-18 19:03 36.079553 -115.147678 155 2119ft 9kts
07-Jun-18 19:04 36.077675 -115.145627 93 2119ft 10kts
07-Jun-18 19:05 36.077553 -115.140881 90 2119ft 15kts
07-Jun-18 19:06 36.077619 -115.135857 89 2119ft 14kts
07-Jun-18 19:07 36.077593 -115.131093 91 2119ft 13kts
07-Jun-18 19:08 36.077596 -115.127184 90 2119ft 14kts
07-Jun-18 19:09 36.077658 -115.122473 87 2119ft 13kts
07-Jun-18 19:10 36.077434 -115.121468 137 2119ft 0kts
07-Jun-18 19:11 36.077424 -115.121456 137 2119ft 1kts
07-Jun-18 19:12 36.076437 -115.122432 269 2119ft 30kts
07-Jun-18 19:13 36.076559 -115.162171 270 2511ft 177kts
07-Jun-18 19:14 36.077103 -115.226504 266 5044ft 200kts
07-Jun-18 19:15 36.038347 -115.277666 197 6549ft 251kts
07-Jun-18 19:16 35.972832 -115.305718 217 7177ft 263kts
07-Jun-18 19:17 35.918549 -115.367855 226 9031ft 283kts
07-Jun-18 19:18 35.887869 -115.451274 268 10889ft 302kts
07-Jun-18 19:19 35.889105 -115.555838 271 10984ft 317kts
07-Jun-18 19:20 35.891107 -115.660576 270 11025ft 325kts
07-Jun-18 19:21 35.892800 -115.761509 270 14040ft 326kts
07-Jun-18 19:22 35.894445 -115.864221 271 16791ft 334kts
07-Jun-18 19:23 35.903850 -115.973844 292 19002ft 348kts
07-Jun-18 19:24 35.968191 -116.059555 316 20052ft 355kts
07-Jun-18 19:25 36.041375 -116.141228 314 22510ft 366kts
07-Jun-18 19:26 36.114206 -116.224494 314 24591ft 378kts
07-Jun-18 19:27 36.190546 -116.312451 314 26660ft 388kts
07-Jun-18 19:28 36.267335 -116.401270 314 29056ft 382kts
07-Jun-18 19:29 36.346064 -116.492754 314 30355ft 400kts
07-Jun-18 19:30 36.425098 -116.584829 314 32399ft 395kts
07-Jun-18 19:31 36.501983 -116.674688 314 34218ft 389kts
07-Jun-18 19:32 36.572761 -116.756348 320 35616ft 388kts
07-Jun-18 19:33 36.666068 -116.828157 325 35952ft 414kts
07-Jun-18 19:34 36.760677 -116.899634 325 35942ft 431kts
07-Jun-18 19:35 36.861963 -116.976530 325 35941ft 430kts
07-Jun-18 19:36 36.963369 -117.053693 325 35943ft 430kts
07-Jun-18 19:37 37.064277 -117.130593 325 36042ft 430kts
07-Jun-18 19:38 37.162982 -117.205975 325 36047ft 430kts
07-Jun-18 19:39 37.257006 -117.277892 325 36046ft 429kts
07-Jun-18 19:40 37.352299 -117.364412 316 36045ft 426kts
07-Jun-18 19:41 37.437279 -117.456667 316 36046ft 426kts
07-Jun-18 19:42 37.498690 -117.575483 284 36041ft 419kts
07-Jun-18 19:43 37.521294 -117.712135 280 36049ft 418kts
07-Jun-18 19:44 37.541946 -117.849656 279 35973ft 408kts
07-Jun-18 19:45 37.562694 -117.990398 280 35939ft 411kts
07-Jun-18 19:46 37.583379 -118.132219 279 35938ft 410kts
07-Jun-18 19:47 37.603771 -118.273572 279 35938ft 411kts
07-Jun-18 19:48 37.623484 -118.411584 279 35937ft 411kts
07-Jun-18 19:49 37.643363 -118.552052 279 36164ft 410kts
07-Jun-18 19:50 37.662054 -118.685390 279 36187ft 410kts
07-Jun-18 19:51 37.680850 -118.821221 279 36185ft 410kts
07-Jun-18 19:52 37.700063 -118.961280 279 36183ft 410kts
07-Jun-18 19:53 37.719229 -119.102262 280 36183ft 411kts
07-Jun-18 19:54 37.738288 -119.243478 279 36180ft 410kts
07-Jun-18 19:55 37.757102 -119.384199 279 36180ft 410kts
07-Jun-18 19:56 37.775779 -119.525132 279 36179ft 410kts
07-Jun-18 19:57 37.792860 -119.655162 279 36178ft 410kts
07-Jun-18 19:58 37.810304 -119.789723 278 36184ft 410kts
07-Jun-18 19:59 37.827547 -119.923987 278 35571ft 391kts
07-Jun-18 20:00 37.844806 -120.059521 279 33189ft 382kts
07-Jun-18 20:01 37.860790 -120.186065 279 30936ft 394kts
07-Jun-18 20:02 37.877793 -120.321794 278 28728ft 393kts
07-Jun-18 20:03 37.866458 -120.454014 259 26526ft 382kts
07-Jun-18 20:04 37.844189 -120.580662 259 24387ft 370kts
07-Jun-18 20:05 37.823667 -120.699283 258 22590ft 355kts
07-Jun-18 20:06 37.805342 -120.805097 259 20828ft 348kts
07-Jun-18 20:07 37.785469 -120.919442 259 19140ft 335kts
07-Jun-18 20:08 37.765522 -121.033344 259 18452ft 339kts
07-Jun-18 20:09 37.746368 -121.142976 259 16620ft 334kts
07-Jun-18 20:10 37.728520 -121.245275 259 14488ft 323kts
07-Jun-18 20:11 37.704792 -121.351045 253 12900ft 316kts
07-Jun-18 20:12 37.677911 -121.452962 253 11444ft 313kts
07-Jun-18 20:13 37.651315 -121.554172 253 9890ft 307kts
07-Jun-18 20:14 37.626322 -121.649220 252 8605ft 282kts
07-Jun-18 20:15 37.611069 -121.738444 264 7163ft 265kts
07-Jun-18 20:16 37.605226 -121.828342 264 5625ft 250kts
07-Jun-18 20:17 37.599989 -121.911507 263 4649ft 243kts
07-Jun-18 20:18 37.595149 -121.991709 264 4034ft 227kts
07-Jun-18 20:19 37.596043 -122.063847 301 3451ft 208kts
07-Jun-18 20:20 37.629450 -122.107581 311 2975ft 169kts
07-Jun-18 20:21 37.657701 -122.149191 308 1315ft 152kts
07-Jun-18 20:22 37.682330 -122.185034 310 612ft 141kts
07-Jun-18 20:23 37.706987 -122.222178 302 12ft 125kts
07-Jun-18 20:24 37.718291 -122.239528 313 11ft 20kts
07-Jun-18 20:25 37.719677 -122.239760 52 11ft 5kts
07-Jun-18 20:26 37.718127 -122.235999 121 11ft 23kts
07-Jun-18 20:27 37.713973 -122.229207 131 11ft 26kts
07-Jun-18 20:28 37.711450 -122.223925 44 11ft 13kts
07-Jun-18 20:29 37.711783 -122.220112 129 11ft 15kts
07-Jun-18 20:30 37.709138 -122.215593 67 11ft 10kts
07-Jun-18 20:31 37.711056 -122.213445 36 11ft 3kts
07-Jun-18 20:32 37.711135 -122.213372 35 11ft 0kts

Navigation Log

Ident Type
Flight plan parsing failed, navigation log unavailable